Time;durP1;ratioP1;P1;durP2;ratioP2;P2;SDS_P1;SDS_P2;PMS_P1;PMS_P2;Temp;Humidity;BMP_temperature;BMP_pressure;BME280_temperature;BME280_humidity;BME280_pressure;Samples;Min_cycle;Max_cycle;Signal;HPM_P1;HPM_P2
2022/06/13 00:00:32;;;;;;;2.17;0.52;;;18.30;99.90;;;;;;4995406;28;20022;-87
2022/06/13 00:02:59;;;;;;;1.23;0.50;;;18.30;99.90;;;;;;4994700;28;20030;-87
2022/06/13 00:05:24;;;;;;;2.53;0.65;;;18.40;99.90;;;;;;4991188;28;20557;-87
2022/06/13 00:07:50;;;;;;;1.35;0.55;;;18.40;99.90;;;;;;4989239;28;20030;-87
2022/06/13 00:10:16;;;;;;;2.25;0.80;;;18.50;99.90;;;;;;5013976;28;20022;-87
2022/06/13 00:12:43;;;;;;;1.73;0.60;;;18.40;99.90;;;;;;5006453;28;20415;-87
2022/06/13 00:15:11;;;;;;;3.38;0.63;;;18.30;99.90;;;;;;5007958;28;20116;-87
2022/06/13 00:17:37;;;;;;;1.52;0.47;;;18.20;99.90;;;;;;4989106;28;20080;-87
2022/06/13 00:20:04;;;;;;;1.35;0.70;;;18.30;99.90;;;;;;4987512;28;20449;-87
2022/06/13 00:22:30;;;;;;;1.73;0.88;;;18.30;99.90;;;;;;4987853;28;20033;-87
2022/06/13 00:24:56;;;;;;;1.25;0.60;;;18.30;99.90;;;;;;5002858;28;20384;-88
2022/06/13 00:27:21;;;;;;;1.08;0.40;;;18.20;99.90;;;;;;4993947;28;20034;-87
2022/06/13 00:29:49;;;;;;;2.20;0.70;;;18.20;99.90;;;;;;5011089;28;20056;-87
2022/06/13 00:32:15;;;;;;;2.20;0.70;;;18.20;99.90;;;;;;4987255;28;20498;-87
2022/06/13 00:34:40;;;;;;;2.25;0.70;;;18.20;99.90;;;;;;4991018;28;20052;-86
2022/06/13 00:37:06;;;;;;;2.40;0.70;;;18.20;99.90;;;;;;5004607;28;20079;-87
2022/06/13 00:39:32;;;;;;;1.50;0.75;;;18.20;99.90;;;;;;4991675;28;20037;-88
2022/06/13 00:42:00;;;;;;;1.73;0.63;;;18.30;99.90;;;;;;5003073;28;20498;-87
2022/06/13 00:44:32;;;;;;;3.20;0.90;;;18.20;99.90;;;;;;4990894;28;20037;-88
2022/06/13 00:46:57;;;;;;;;;;;18.30;99.90;;;;;;4987625;28;20482;-87
2022/06/13 00:49:38;;;;;;;2.85;0.60;;;18.20;99.90;;;;;;4990699;28;20043;-87
2022/06/13 00:52:28;;;;;;;1.05;0.52;;;18.10;99.90;;;;;;4989159;28;20486;-87
2022/06/13 00:54:55;;;;;;;2.95;0.80;;;18.10;99.90;;;;;;4988494;28;20054;-87
2022/06/13 00:57:26;;;;;;;1.58;0.60;;;18.10;99.90;;;;;;5011920;28;20021;-87
2022/06/13 00:59:57;;;;;;;2.77;0.70;;;18.20;99.90;;;;;;4993436;28;20026;-87
2022/06/13 01:02:23;;;;;;;1.75;0.60;;;18.20;99.90;;;;;;4995819;28;20506;-87
2022/06/13 01:04:52;;;;;;;1.50;0.70;;;18.20;99.90;;;;;;4992477;28;20050;-87
2022/06/13 01:07:20;;;;;;;2.55;0.80;;;18.20;99.90;;;;;;4986019;28;20033;-88
2022/06/13 01:12:32;;;;;;;2.28;0.82;;;18.20;99.90;;;;;;5009014;28;20113;-88
2022/06/13 01:15:31;;;;;;;1.50;0.50;;;18.30;99.90;;;;;;4989372;28;20112;-88
2022/06/13 01:18:16;;;;;;;1.90;0.57;;;18.20;99.90;;;;;;4994825;28;20014;-87
2022/06/13 01:21:03;;;;;;;3.78;0.68;;;18.10;99.90;;;;;;4984407;28;20233;-88
2022/06/13 01:23:41;;;;;;;3.10;1.13;;;18.10;99.90;;;;;;4986878;28;20026;-87
2022/06/13 01:26:36;;;;;;;1.85;0.80;;;18.00;99.90;;;;;;4995134;28;20439;-87
2022/06/13 01:29:38;;;;;;;2.55;0.60;;;18.10;99.90;;;;;;4987163;28;20033;-86
2022/06/13 01:32:16;;;;;;;2.58;0.60;;;18.10;99.90;;;;;;5014508;28;20029;-87
2022/06/13 01:35:05;;;;;;;1.25;0.70;;;18.10;99.90;;;;;;4992683;28;20025;-87
2022/06/13 01:37:55;;;;;;;2.83;0.75;;;18.00;99.90;;;;;;5010239;28;20029;-88
2022/06/13 01:40:35;;;;;;;3.28;0.85;;;18.00;99.90;;;;;;5003647;28;20037;-88
2022/06/13 01:43:19;;;;;;;1.65;0.73;;;18.00;99.90;;;;;;5009181;28;20033;-88
2022/06/13 01:45:57;;;;;;;3.35;0.80;;;18.10;99.90;;;;;;4988482;28;20023;-88
2022/06/13 01:48:36;;;;;;;2.55;0.73;;;18.20;99.90;;;;;;4980200;28;20125;-87
2022/06/13 01:51:32;;;;;;;2.97;0.90;;;18.20;99.90;;;;;;5018168;28;20021;-88
2022/06/13 01:54:14;;;;;;;1.83;0.70;;;18.20;99.90;;;;;;5016512;28;20061;-87
2022/06/13 01:56:59;;;;;;;2.00;0.70;;;18.20;99.90;;;;;;5016541;28;20022;-87
2022/06/13 01:59:52;;;;;;;1.35;0.68;;;18.30;99.90;;;;;;5015060;28;20032;-88
2022/06/13 02:02:31;;;;;;;2.05;0.85;;;18.10;99.90;;;;;;4993603;28;20021;-87
2022/06/13 02:05:08;;;;;;;1.10;0.60;;;18.10;99.90;;;;;;5005297;28;20027;-88
2022/06/13 02:07:41;;;;;;;2.53;0.90;;;18.00;99.90;;;;;;4988915;28;20175;-87
2022/06/13 02:10:13;;;;;;;5.15;0.88;;;18.00;99.90;;;;;;4997886;28;20026;-87
2022/06/13 02:12:40;;;;;;;2.83;0.70;;;18.00;99.90;;;;;;4991787;28;20030;-88
2022/06/13 02:15:17;;;;;;;3.30;1.27;;;17.80;99.90;;;;;;4982571;28;20507;-87
2022/06/13 02:17:49;;;;;;;1.75;0.68;;;17.90;99.90;;;;;;4993236;28;20403;-88
2022/06/13 02:20:23;;;;;;;3.10;0.70;;;17.90;99.90;;;;;;4989351;28;21731;-87
2022/06/13 02:22:53;;;;;;;3.25;1.00;;;17.80;99.90;;;;;;4990102;28;20390;-89
2022/06/13 02:25:35;;;;;;;2.20;1.00;;;17.90;99.90;;;;;;4989366;28;20030;-88
2022/06/13 02:28:05;;;;;;;2.85;1.13;;;17.90;99.90;;;;;;4991635;28;20768;-88
2022/06/13 02:30:36;;;;;;;2.42;0.82;;;18.00;99.90;;;;;;5012174;28;20038;-88
2022/06/13 02:33:10;;;;;;;2.70;0.80;;;18.00;99.90;;;;;;4991697;28;20108;-88
2022/06/13 02:35:51;;;;;;;2.47;0.80;;;18.00;99.90;;;;;;4996325;28;20022;-88
2022/06/13 02:38:35;;;;;;;2.05;0.80;;;18.00;99.90;;;;;;4993106;28;20483;-89
2022/06/13 02:41:08;;;;;;;2.20;0.93;;;18.00;99.90;;;;;;5009103;28;20026;-88
2022/06/13 02:44:00;;;;;;;1.45;0.73;;;18.20;99.90;;;;;;4992610;28;20501;-87
2022/06/13 02:46:47;;;;;;;1.85;0.60;;;18.00;99.90;;;;;;4989078;28;20054;-88
2022/06/13 02:49:27;;;;;;;1.45;0.68;;;18.10;99.90;;;;;;4993745;28;20090;-87
2022/06/13 02:52:12;;;;;;;3.38;0.95;;;18.00;99.90;;;;;;5013220;28;20037;-88
2022/06/13 02:54:52;;;;;;;1.80;0.80;;;18.00;99.90;;;;;;4989433;28;20442;-89
2022/06/13 02:57:51;;;;;;;2.78;0.70;;;18.00;99.90;;;;;;4994550;28;20018;-88
2022/06/13 03:00:38;;;;;;;2.55;0.60;;;18.00;99.90;;;;;;5007342;28;20024;-87
2022/06/13 03:03:41;;;;;;;1.25;0.63;;;17.90;99.90;;;;;;4987241;28;20030;-88
2022/06/13 03:06:45;;;;;;;1.83;0.70;;;17.90;99.90;;;;;;5010253;28;20034;-88
2022/06/13 03:09:36;;;;;;;3.15;0.60;;;17.70;99.90;;;;;;4931905;29;20024;-88
2022/06/13 03:12:01;;;;;;;1.90;0.50;;;17.60;99.90;;;;;;4962649;28;20045;-88
2022/06/13 03:14:45;;;;;;;1.95;0.70;;;17.60;99.90;;;;;;4988448;28;20117;-88
2022/06/13 03:17:18;;;;;;;3.35;1.20;;;17.50;99.90;;;;;;5005681;28;20033;-88
2022/06/13 03:19:58;;;;;;;2.70;0.82;;;17.40;99.90;;;;;;4989028;28;20019;-87
2022/06/13 03:22:49;;;;;;;1.90;0.60;;;17.40;99.90;;;;;;4990153;28;20490;-88
2022/06/13 03:26:07;;;;;;;1.30;0.57;;;17.30;99.90;;;;;;4991655;28;20056;-88
2022/06/13 03:29:08;;;;;;;1.67;0.52;;;17.30;99.90;;;;;;4969518;28;20516;-89
2022/06/13 03:31:45;;;;;;;0.90;0.45;;;17.20;99.90;;;;;;5007764;28;20034;-87
2022/06/13 03:34:16;;;;;;;1.50;0.60;;;17.20;99.90;;;;;;4994762;28;20022;-88
2022/06/13 03:37:21;;;;;;;2.33;0.70;;;17.20;99.90;;;;;;4988641;28;20018;-89
2022/06/13 03:40:09;;;;;;;1.42;0.77;;;17.20;99.90;;;;;;5003770;28;20036;-88
2022/06/13 03:42:42;;;;;;;1.70;0.70;;;17.10;99.90;;;;;;4989019;28;20025;-88
2022/06/13 03:45:20;;;;;;;2.15;1.00;;;17.10;99.90;;;;;;4992007;28;20034;-89
2022/06/13 03:48:08;;;;;;;4.63;0.90;;;17.00;99.90;;;;;;4986591;28;20030;-88
2022/06/13 03:50:42;;;;;;;2.15;0.65;;;17.00;99.90;;;;;;5011703;28;20038;-88
2022/06/13 03:53:31;;;;;;;1.40;0.50;;;16.90;99.90;;;;;;5008256;28;20501;-88
2022/06/13 03:56:22;;;;;;;2.10;0.60;;;16.90;99.90;;;;;;4993707;28;20536;-88
2022/06/13 03:58:59;;;;;;;2.80;0.88;;;16.70;99.90;;;;;;5011503;28;20026;-88
2022/06/13 04:01:30;;;;;;;3.33;0.70;;;16.70;99.90;;;;;;4992534;28;20033;-88
2022/06/13 04:04:00;;;;;;;1.48;0.45;;;16.70;99.90;;;;;;4991727;28;20017;-88
2022/06/13 04:06:42;;;;;;;2.15;0.50;;;16.60;99.90;;;;;;4991470;28;20058;-89
2022/06/13 04:09:29;;;;;;;2.35;0.63;;;16.60;99.90;;;;;;4989035;28;20050;-89
2022/06/13 04:12:00;;;;;;;2.13;0.70;;;16.60;99.90;;;;;;4991112;28;20135;-88
2022/06/13 04:14:48;;;;;;;3.13;0.82;;;16.60;99.90;;;;;;4987055;28;20034;-89
2022/06/13 04:17:46;;;;;;;3.35;0.60;;;16.50;99.90;;;;;;4988979;28;20028;-88
2022/06/13 04:20:21;;;;;;;2.78;0.52;;;16.50;99.90;;;;;;4986874;28;20530;-88
2022/06/13 04:22:49;;;;;;;1.45;0.50;;;16.50;99.90;;;;;;4991018;28;20049;-89
2022/06/13 04:25:36;;;;;;;1.77;0.47;;;16.50;99.90;;;;;;4988526;28;20068;-88
2022/06/13 04:28:21;;;;;;;1.95;0.65;;;16.60;99.90;;;;;;4987954;28;20544;-88
2022/06/13 04:30:49;;;;;;;2.63;0.57;;;16.60;99.90;;;;;;4992156;28;20061;-89
2022/06/13 04:33:40;;;;;;;1.77;0.50;;;16.60;99.90;;;;;;5010272;28;20124;-89
2022/06/13 04:36:10;;;;;;;3.37;1.13;;;16.60;99.90;;;;;;4990460;28;20102;-89
2022/06/13 04:38:41;;;;;;;1.23;0.57;;;16.60;99.90;;;;;;4985006;28;20276;-88
2022/06/13 04:41:11;;;;;;;3.67;0.70;;;16.60;99.90;;;;;;4992648;28;20037;-88
2022/06/13 04:43:42;;;;;;;3.97;0.52;;;16.60;99.90;;;;;;4994648;28;20126;-88
2022/06/13 04:46:16;;;;;;;2.03;0.55;;;16.60;99.90;;;;;;4994948;28;20116;-88
2022/06/13 04:48:45;;;;;;;5.18;0.60;;;16.70;99.90;;;;;;5010266;28;20038;-88
2022/06/13 04:51:32;;;;;;;1.33;0.50;;;17.20;99.90;;;;;;4992814;28;20040;-88
2022/06/13 04:54:14;;;;;;;2.80;0.70;;;16.60;99.90;;;;;;4991163;28;20070;-89
2022/06/13 04:56:43;;;;;;;1.52;0.60;;;16.50;99.90;;;;;;5008977;28;20013;-88
2022/06/13 04:59:15;;;;;;;4.03;1.00;;;16.60;99.90;;;;;;5007544;28;20018;-88
2022/06/13 05:01:49;;;;;;;2.10;0.70;;;16.50;99.90;;;;;;5007851;28;20022;-88
2022/06/13 05:04:20;;;;;;;1.17;0.55;;;16.40;99.90;;;;;;4987263;28;20390;-88
2022/06/13 05:06:48;;;;;;;;;;;16.30;99.90;;;;;;4990498;28;20046;-87
2022/06/13 05:09:25;;;;;;;3.38;0.68;;;16.30;99.90;;;;;;5000200;28;19917;-87
2022/06/13 05:12:13;;;;;;;2.83;0.52;;;16.40;99.90;;;;;;4991470;28;20029;-87
2022/06/13 05:14:53;;;;;;;2.85;0.68;;;16.40;99.90;;;;;;4992985;28;20030;-87
2022/06/13 05:17:37;;;;;;;2.38;0.60;;;16.40;99.90;;;;;;5010252;28;20014;-86
2022/06/13 05:20:40;;;;;;;3.53;0.57;;;16.60;99.90;;;;;;4984584;28;20018;-86
2022/06/13 05:23:52;;;;;;;1.30;0.50;;;16.70;99.90;;;;;;4992418;28;20109;-86
2022/06/13 05:26:18;;;;;;;2.90;0.98;;;16.80;99.90;;;;;;4923466;28;20562;-86
2022/06/13 05:28:44;;;;;;;1.27;0.57;;;16.80;99.90;;;;;;4988406;28;20121;-86
2022/06/13 05:31:18;;;;;;;3.50;1.38;;;16.80;99.90;;;;;;4994165;28;20087;-87
2022/06/13 05:33:44;;;;;;;2.28;0.70;;;16.70;99.90;;;;;;4990924;28;20049;-88
2022/06/13 05:36:20;;;;;;;1.52;0.60;;;16.70;99.90;;;;;;4989493;28;20044;-87
2022/06/13 05:38:58;;;;;;;2.05;0.57;;;16.70;99.90;;;;;;4989266;28;20351;-87
2022/06/13 05:41:24;;;;;;;1.15;0.50;;;16.80;99.90;;;;;;4986982;28;20032;-87
2022/06/13 05:43:50;;;;;;;3.13;1.10;;;16.80;99.90;;;;;;4991126;28;20390;-86
2022/06/13 05:46:26;;;;;;;1.55;0.50;;;16.90;99.90;;;;;;4982343;28;20058;-87
2022/06/13 05:48:54;;;;;;;1.83;0.50;;;17.00;99.90;;;;;;4988869;28;20517;-86
2022/06/13 05:51:20;;;;;;;3.65;1.30;;;17.10;99.90;;;;;;4990252;28;20033;-88
2022/06/13 05:53:46;;;;;;;1.83;0.65;;;17.20;99.90;;;;;;5007384;28;20022;-86
2022/06/13 05:56:12;;;;;;;4.60;1.23;;;17.30;99.90;;;;;;4990911;28;20160;-88
2022/06/13 05:58:38;;;;;;;3.28;0.80;;;17.30;99.90;;;;;;4983810;28;20033;-87
2022/06/13 06:01:05;;;;;;;2.20;0.60;;;17.40;99.90;;;;;;4987940;28;20022;-87
2022/06/13 06:03:32;;;;;;;3.00;0.60;;;17.40;99.90;;;;;;4992638;28;20029;-86
2022/06/13 06:05:59;;;;;;;2.50;0.98;;;17.40;99.90;;;;;;5009503;28;20029;-86
2022/06/13 06:08:28;;;;;;;2.15;0.68;;;17.40;99.90;;;;;;4990741;28;20084;-86
2022/06/13 06:10:56;;;;;;;1.23;0.60;;;17.40;99.90;;;;;;4987444;28;20030;-86
2022/06/13 06:13:23;;;;;;;3.65;0.77;;;17.30;99.90;;;;;;4990851;28;20433;-87
2022/06/13 06:15:50;;;;;;;1.67;0.57;;;17.30;99.90;;;;;;4986491;28;20034;-87
2022/06/13 06:18:16;;;;;;;4.30;0.77;;;17.40;99.90;;;;;;4987890;28;20030;-87
2022/06/13 06:20:45;;;;;;;2.30;0.70;;;17.50;99.90;;;;;;4990919;23;20057;-87
2022/06/13 06:23:14;;;;;;;2.50;0.52;;;17.60;99.90;;;;;;4990269;28;20030;-87
2022/06/13 06:25:42;;;;;;;2.03;0.60;;;17.70;99.90;;;;;;4988656;28;20022;-87
2022/06/13 06:28:34;;;;;;;2.08;0.50;;;17.70;99.90;;;;;;4991782;28;20700;-89
2022/06/13 06:31:01;;;;;;;1.65;0.60;;;17.70;99.90;;;;;;4984426;28;20037;-88
2022/06/13 06:33:28;;;;;;;2.88;0.77;;;17.80;99.90;;;;;;4989727;28;20383;-88
2022/06/13 06:35:54;;;;;;;2.92;0.70;;;17.90;99.90;;;;;;4990568;28;20030;-89
2022/06/13 06:38:22;;;;;;;3.47;0.50;;;18.00;99.90;;;;;;4993072;28;20105;-88
2022/06/13 06:40:54;;;;;;;2.15;0.60;;;18.10;99.90;;;;;;4984414;28;20026;-88
2022/06/13 06:43:20;;;;;;;2.30;0.50;;;18.00;99.90;;;;;;4988490;28;20030;-88
2022/06/13 06:45:46;;;;;;;1.58;0.50;;;18.10;99.90;;;;;;4987764;28;20033;-89
2022/06/13 06:48:14;;;;;;;2.78;0.85;;;18.20;99.90;;;;;;4989162;28;20121;-88
2022/06/13 06:50:43;;;;;;;1.20;0.50;;;18.20;99.90;;;;;;4988480;28;20430;-89
2022/06/13 06:53:10;;;;;;;2.55;0.50;;;18.20;99.90;;;;;;4992497;28;20026;-89
2022/06/13 07:01:09;;;;;;;1.67;0.60;;;18.40;99.90;;;;;;4995504;28;20029;-92
2022/06/13 07:03:45;;;;;;;2.92;0.60;;;18.50;99.90;;;;;;4997896;28;20027;-91
2022/06/13 07:06:15;;;;;;;1.98;0.50;;;18.60;99.90;;;;;;4991663;28;20513;-91
2022/06/13 07:08:41;;;;;;;2.63;0.50;;;18.60;99.90;;;;;;4996404;28;20034;-90
2022/06/13 07:14:03;;;;;;;1.90;0.50;;;18.80;99.90;;;;;;4993911;28;20429;-90
2022/06/13 07:16:32;;;;;;;1.63;0.45;;;19.20;99.90;;;;;;4996607;28;20026;-92
2022/06/13 07:18:58;;;;;;;1.02;0.40;;;19.30;99.90;;;;;;4995910;28;20110;-91
2022/06/13 07:21:43;;;;;;;1.73;0.47;;;19.10;99.90;;;;;;4983513;28;20027;-91
2022/06/13 07:24:12;;;;;;;4.32;0.50;;;19.10;99.90;;;;;;4995780;28;20049;-91
2022/06/13 07:26:55;;;;;;;2.35;0.65;;;19.10;99.90;;;;;;4999506;28;20041;-90
2022/06/13 07:29:21;;;;;;;1.33;0.60;;;19.10;99.90;;;;;;4993735;28;20033;-91
2022/06/13 07:32:04;;;;;;;2.05;0.63;;;19.10;99.90;;;;;;4999175;28;20045;-90
2022/06/13 07:34:41;;;;;;;3.05;0.68;;;19.20;99.90;;;;;;4997401;28;20022;-90
2022/06/13 07:37:12;;;;;;;1.85;0.68;;;19.30;99.90;;;;;;4997313;28;20026;-90
2022/06/13 07:39:48;;;;;;;2.28;0.60;;;19.40;99.90;;;;;;4995139;28;20054;-91
2022/06/13 07:42:17;;;;;;;2.58;0.98;;;19.50;99.90;;;;;;4990409;28;20061;-92
2022/06/13 07:44:43;;;;;;;1.48;0.50;;;19.70;99.90;;;;;;4989067;28;20031;-91
2022/06/13 07:47:22;;;;;;;1.60;0.55;;;19.80;99.90;;;;;;4996193;28;20094;-92
2022/06/13 07:49:50;;;;;;;2.30;1.08;;;20.00;99.90;;;;;;4993702;28;20034;-90
2022/06/13 07:52:17;;;;;;;1.65;0.80;;;20.00;99.90;;;;;;4994403;28;20034;-91
2022/06/13 07:54:46;;;;;;;1.38;0.32;;;20.20;99.90;;;;;;4994818;28;20035;-91
2022/06/13 07:57:12;;;;;;;1.70;0.50;;;20.20;99.90;;;;;;4991059;28;20023;-91
2022/06/13 07:59:57;;;;;;;1.23;0.50;;;20.30;99.90;;;;;;5001437;28;20030;-91
2022/06/13 08:02:36;;;;;;;2.05;0.52;;;20.40;99.90;;;;;;4999733;28;20041;-91
2022/06/13 08:05:33;;;;;;;;;;;;;;;;;;;;;
2022/06/13 08:08:49;;;;;;;0.85;0.40;;;20.40;99.90;;;;;;4996199;28;20475;-92
2022/06/13 08:11:41;;;;;;;3.15;0.57;;;20.60;99.90;;;;;;4997017;28;20030;-93
2022/06/13 08:16:55;;;;;;;3.45;0.63;;;20.60;99.90;;;;;;5002872;28;20031;-91
2022/06/13 08:19:51;;;;;;;;;;;;;;;;;;;;;
2022/06/13 08:22:22;;;;;;;2.42;0.80;;;20.80;99.90;;;;;;4984228;28;20105;-89
2022/06/13 08:28:31;;;;;;;3.08;0.50;;;21.10;99.60;;;;;;4945768;28;20055;-91
2022/06/13 08:31:24;;;;;;;4.50;0.50;;;20.80;99.80;;;;;;4952427;28;20042;-92
2022/06/13 08:34:05;;;;;;;3.22;0.55;;;21.00;99.80;;;;;;4995999;28;20041;-89
2022/06/13 08:37:05;;;;;;;2.72;0.43;;;21.30;98.60;;;;;;5002527;28;20390;-90
2022/06/13 08:42:35;;;;;;;1.58;0.60;;;21.70;97.90;;;;;;5111403;23;20058;-92
2022/06/13 08:45:47;;;;;;;3.00;0.40;;;21.60;97.60;;;;;;5000994;28;20098;-92
2022/06/13 09:00:22;;;;;;;6.45;1.45;;;21.80;97.60;;;;;;4986438;28;20040;-89
2022/06/13 09:03:45;;;;;;;1.80;0.43;;;21.80;97.20;;;;;;5004804;28;20032;-90
2022/06/13 09:06:43;;;;;;;2.78;0.60;;;22.30;98.10;;;;;;4906834;29;20023;-89
2022/06/13 09:09:55;;;;;;;2.20;0.63;;;23.30;96.40;;;;;;4910904;29;20028;-90
2022/06/13 09:13:46;;;;;;;3.55;0.47;;;22.40;96.90;;;;;;4924735;29;20034;-92
2022/06/13 09:16:45;;;;;;;1.70;0.75;;;22.40;97.20;;;;;;4836179;28;20058;-88
2022/06/13 09:20:24;;;;;;;3.17;0.70;;;22.30;96.30;;;;;;4956588;28;20027;-88
2022/06/13 09:23:40;;;;;;;2.72;0.60;;;22.70;96.30;;;;;;4873658;29;20129;-88
2022/06/13 09:27:10;;;;;;;2.08;0.50;;;22.90;95.70;;;;;;4838313;29;20041;-89
2022/06/13 09:29:58;;;;;;;3.03;0.60;;;22.90;94.40;;;;;;4853596;29;20024;-88
2022/06/13 09:33:06;;;;;;;1.73;0.50;;;23.20;94.80;;;;;;4974577;28;20045;-90
2022/06/13 09:35:39;;;;;;;1.85;0.65;;;23.20;93.80;;;;;;4965427;28;20046;-89
2022/06/13 09:38:24;;;;;;;2.08;0.50;;;23.30;93.60;;;;;;4949419;28;20035;-89
2022/06/13 09:41:22;;;;;;;3.72;0.70;;;23.30;93.40;;;;;;4932044;28;20038;-89
2022/06/13 09:44:07;;;;;;;1.70;0.50;;;23.10;94.30;;;;;;4979683;28;20038;-89
2022/06/13 09:47:13;;;;;;;2.15;0.35;;;23.30;92.10;;;;;;4972868;28;20034;-89
2022/06/13 09:50:02;;;;;;;1.58;0.40;;;22.90;92.50;;;;;;4972470;28;20023;-88
2022/06/13 09:53:12;;;;;;;3.92;0.80;;;23.20;92.60;;;;;;4941581;28;20050;-89
2022/06/13 09:55:59;;;;;;;2.35;0.55;;;23.50;92.50;;;;;;4993040;28;20159;-88
2022/06/13 09:58:40;;;;;;;3.15;0.60;;;23.40;91.00;;;;;;4996052;28;20181;-89
2022/06/13 10:01:56;;;;;;;2.03;0.63;;;22.90;92.10;;;;;;4970353;28;20479;-90
2022/06/13 10:05:12;;;;;;;1.83;0.40;;;23.40;90.20;;;;;;4978503;28;20044;-90
2022/06/13 10:08:34;;;;;;;1.88;0.43;;;23.20;92.50;;;;;;4989488;28;20101;-90
2022/06/13 10:11:38;;;;;;;1.67;0.38;;;23.50;92.50;;;;;;4997117;28;20031;-89
2022/06/13 10:14:45;;;;;;;2.28;0.40;;;24.10;92.90;;;;;;4979042;28;20041;-89
2022/06/13 10:17:23;;;;;;;3.78;0.52;;;24.00;91.30;;;;;;4982424;28;20031;-90
2022/06/13 10:20:34;;;;;;;2.58;0.52;;;24.30;89.40;;;;;;4977775;28;20061;-90
2022/06/13 10:23:42;;;;;;;1.35;0.40;;;24.60;88.00;;;;;;4972862;28;20479;-89
2022/06/13 10:26:44;;;;;;;1.85;0.40;;;24.40;88.30;;;;;;4987597;28;20042;-89
2022/06/13 10:40:25;;;;;;;;;;;;;;;;;;;;;
2022/06/13 10:43:00;;;;;;;2.17;0.40;;;24.30;83.40;;;;;;4992487;28;20040;-88
2022/06/13 10:46:10;;;;;;;0.85;0.30;;;24.10;82.80;;;;;;4973180;28;20101;-88
2022/06/13 10:49:28;;;;;;;1.00;0.30;;;24.40;85.40;;;;;;4988957;28;20050;-89
2022/06/13 10:51:57;;;;;;;3.13;0.43;;;24.50;90.40;;;;;;4991222;28;20041;-88
2022/06/13 10:55:00;;;;;;;2.67;0.40;;;24.40;82.80;;;;;;4993265;28;20483;-90
2022/06/13 11:04:43;;;;;;;;;;;;;;;;;;;;;
2022/06/13 11:07:43;;;;;;;2.40;0.30;;;24.40;80.30;;;;;;4997602;28;20109;-90
2022/06/13 11:10:26;;;;;;;1.38;0.40;;;24.90;81.50;;;;;;4996811;28;20018;-90
2022/06/13 11:13:50;;;;;;;0.77;0.32;;;25.10;81.50;;;;;;4977222;28;20022;-89
2022/06/13 11:22:49;;;;;;;0.68;0.28;;;25.20;81.00;;;;;;5045194;23;20510;-91
2022/06/13 11:25:44;;;;;;;4.03;0.50;;;25.10;81.10;;;;;;4998595;28;20064;-89
2022/06/13 11:28:53;;;;;;;0.85;0.30;;;24.80;82.50;;;;;;5001234;28;20025;-91
2022/06/13 11:31:26;;;;;;;2.58;0.55;;;24.80;83.50;;;;;;5001056;28;20042;-90
2022/06/13 11:34:15;;;;;;;0.88;0.47;;;25.10;79.10;;;;;;5003016;28;20463;-90
2022/06/13 11:37:35;;;;;;;1.92;0.30;;;25.30;81.20;;;;;;4996098;28;20022;-90
2022/06/13 11:43:04;;;;;;;1.23;0.55;;;25.50;79.50;;;;;;5136718;23;20111;-89
2022/06/13 11:46:01;;;;;;;1.10;0.50;;;25.40;78.20;;;;;;4996562;28;20059;-90
2022/06/13 11:48:31;;;;;;;2.65;0.50;;;25.00;80.10;;;;;;4987593;28;20046;-90
2022/06/13 11:51:38;;;;;;;3.35;0.57;;;24.40;79.50;;;;;;4997708;28;20096;-90
2022/06/13 11:55:13;;;;;;;3.47;0.52;;;24.30;79.90;;;;;;4999926;28;20042;-89
2022/06/13 12:01:37;;;;;;;2.10;0.35;;;25.30;80.40;;;;;;4911219;28;20480;-89
2022/06/13 12:04:47;;;;;;;;;;;;;;;;;;;;;
2022/06/13 12:08:00;;;;;;;1.65;0.40;;;24.60;76.30;;;;;;5027587;28;20050;-89
2022/06/13 12:21:19;;;;;;;0.80;0.30;;;24.60;78.20;;;;;;5047902;22;20062;-90
2022/06/13 12:24:22;;;;;;;;;;;;;;;;;;;;;
2022/06/13 12:31:07;;;;;;;1.75;0.40;;;25.30;73.00;;;;;;4990413;28;20033;-89
2022/06/13 12:37:44;;;;;;;2.17;0.50;;;26.40;71.90;;;;;;5010968;28;20141;-90
2022/06/13 12:40:39;;;;;;;0.90;0.38;;;26.20;73.10;;;;;;4990026;28;20117;-88
2022/06/13 12:43:41;;;;;;;2.15;0.40;;;26.80;72.40;;;;;;5000218;28;20029;-89
2022/06/13 12:46:44;;;;;;;1.35;0.30;;;26.80;71.40;;;;;;5005203;28;20022;-88
2022/06/13 12:49:47;;;;;;;1.30;0.40;;;26.00;71.40;;;;;;5009947;28;20111;-88
2022/06/13 12:52:34;;;;;;;;;;;;;;;;;;;;;
2022/06/13 12:55:53;;;;;;;;;;;;;;;;;;;;;
2022/06/13 12:59:11;;;;;;;1.55;0.50;;;26.20;71.40;;;;;;5007695;28;20028;-89
2022/06/13 13:02:18;;;;;;;3.67;0.57;;;25.80;70.10;;;;;;5013217;28;20123;-89
2022/06/13 13:05:01;;;;;;;1.77;0.38;;;25.80;70.40;;;;;;5014184;28;20079;-89
2022/06/13 13:08:02;;;;;;;3.13;0.30;;;26.50;69.50;;;;;;5002721;28;20026;-88
2022/06/13 13:11:00;;;;;;;1.00;0.45;;;26.60;70.70;;;;;;4998040;28;20130;-88
2022/06/13 13:13:37;;;;;;;1.73;0.77;;;27.00;71.50;;;;;;5016961;28;20057;-89
2022/06/13 13:16:41;;;;;;;1.58;0.60;;;27.60;71.70;;;;;;4997880;28;20048;-89
2022/06/13 13:19:55;;;;;;;0.70;0.38;;;27.30;68.10;;;;;;4975001;28;20577;-90
2022/06/13 13:22:49;;;;;;;0.75;0.25;;;27.60;67.50;;;;;;5009228;28;20033;-90
2022/06/13 13:25:28;;;;;;;1.60;0.30;;;27.50;67.70;;;;;;4994673;28;20165;-88
2022/06/13 13:30:55;;;;;;;1.65;0.32;;;28.30;67.40;;;;;;5012507;28;20398;-89
2022/06/13 13:33:45;;;;;;;2.28;0.43;;;27.60;66.90;;;;;;5003736;28;20022;-88
2022/06/13 13:36:29;;;;;;;1.60;0.35;;;26.90;65.90;;;;;;5006798;28;20021;-88
2022/06/13 13:39:05;;;;;;;1.95;0.40;;;27.00;66.30;;;;;;5008084;28;20021;-88
2022/06/13 13:41:40;;;;;;;0.40;0.20;;;27.30;67.00;;;;;;5018725;28;20026;-88
2022/06/13 13:44:21;;;;;;;1.00;0.35;;;27.60;66.20;;;;;;4992407;28;20017;-89
2022/06/13 13:47:26;;;;;;;1.35;0.30;;;27.40;64.30;;;;;;5009028;28;20022;-89
2022/06/13 13:50:29;;;;;;;1.73;0.40;;;27.40;64.70;;;;;;4896052;29;20056;-89
2022/06/13 13:53:19;;;;;;;1.15;0.30;;;26.20;66.80;;;;;;4885956;29;20835;-88
2022/06/13 13:56:18;;;;;;;1.80;0.32;;;26.00;65.80;;;;;;4983055;28;20402;-89
2022/06/13 13:58:56;;;;;;;0.68;0.30;;;26.70;65.80;;;;;;4994412;28;20057;-90
2022/06/13 14:01:31;;;;;;;1.05;0.50;;;26.90;63.90;;;;;;4979459;28;20027;-88
2022/06/13 14:04:51;;;;;;;1.75;0.30;;;27.10;64.50;;;;;;4983300;28;20035;-89
2022/06/13 14:07:38;;;;;;;2.75;0.30;;;27.70;64.90;;;;;;4902029;29;20123;-89
2022/06/13 14:10:15;;;;;;;1.75;0.35;;;28.00;66.90;;;;;;4992915;28;20471;-89
2022/06/13 14:13:15;;;;;;;1.45;0.40;;;28.20;64.30;;;;;;5004667;28;20087;-89
2022/06/13 14:15:50;;;;;;;2.60;0.38;;;29.10;64.80;;;;;;5007778;28;20022;-89
2022/06/13 14:18:38;;;;;;;1.60;0.50;;;29.30;62.00;;;;;;5001128;28;20145;-89
2022/06/13 14:21:42;;;;;;;2.15;0.45;;;28.60;61.00;;;;;;4999407;28;20521;-89
2022/06/13 14:24:11;;;;;;;3.17;0.38;;;27.80;61.70;;;;;;5003529;28;20049;-89
2022/06/13 14:26:40;;;;;;;0.35;0.20;;;27.40;63.40;;;;;;5001719;28;20018;-90
2022/06/13 14:29:42;;;;;;;0.88;0.35;;;27.70;63.30;;;;;;5002870;28;20028;-89
2022/06/13 14:32:31;;;;;;;2.65;0.43;;;28.00;62.80;;;;;;4995383;28;20030;-89
2022/06/13 14:35:56;;;;;;;0.98;0.30;;;28.00;65.20;;;;;;5015204;28;20121;-89
2022/06/13 14:38:57;;;;;;;0.77;0.28;;;29.20;61.50;;;;;;5002419;28;20517;-89
2022/06/13 14:41:32;;;;;;;1.75;0.40;;;28.70;61.50;;;;;;5001661;28;20026;-89
2022/06/13 14:47:48;;;;;;;1.83;0.32;;;29.30;60.00;;;;;;5017917;28;20100;-89
2022/06/13 14:51:05;;;;;;;;;;;;;;;;;;;;;
2022/06/13 14:53:34;;;;;;;1.08;0.30;;;29.30;61.00;;;;;;4983458;28;20049;-89
2022/06/13 14:56:25;;;;;;;;;;;;;;;;;;;;;
2022/06/13 14:59:36;;;;;;;1.27;0.40;;;29.20;58.90;;;;;;5019266;28;20026;-89
2022/06/13 15:06:37;;;;;;;2.05;0.30;;;29.70;60.20;;;;;;4941640;28;20520;-89
2022/06/13 15:09:24;;;;;;;;;;;30.40;60.20;;;;;;4943340;28;20538;-88
2022/06/13 15:15:38;;;;;;;1.58;0.57;;;28.40;60.20;;;;;;4982444;28;20037;-89
2022/06/13 15:18:54;;;;;;;;;;;;;;;;;;;;;
2022/06/13 15:21:46;;;;;;;0.30;0.20;;;26.80;60.80;;;;;;5017563;28;20048;-89
2022/06/13 15:24:19;;;;;;;1.17;0.52;;;26.20;62.90;;;;;;5000665;28;20026;-89
2022/06/13 15:27:04;;;;;;;1.58;0.60;;;26.20;63.60;;;;;;5019283;28;20043;-89
2022/06/13 15:30:10;;;;;;;;;;;;;;;;;;;;;
2022/06/13 15:32:37;;;;;;;1.00;0.30;;;26.00;63.50;;;;;;5017884;28;20040;-88
2022/06/13 15:35:54;;;;;;;0.85;0.40;;;25.50;64.30;;;;;;4996797;28;20053;-89
2022/06/13 15:38:46;;;;;;;2.22;0.40;;;25.00;62.40;;;;;;4998040;28;20077;-89
2022/06/13 15:41:26;;;;;;;0.70;0.20;;;25.90;63.50;;;;;;5008948;28;20097;-89
2022/06/13 15:44:10;;;;;;;0.83;0.40;;;26.80;65.50;;;;;;4992573;28;20094;-88
2022/06/13 15:46:52;;;;;;;1.98;0.93;;;26.90;61.80;;;;;;4983420;28;20380;-88
2022/06/13 15:49:37;;;;;;;2.47;0.50;;;27.00;62.10;;;;;;4993844;28;20072;-88
2022/06/13 15:52:05;;;;;;;0.80;0.40;;;26.20;62.30;;;;;;4989276;28;20030;-88
2022/06/13 15:54:34;;;;;;;1.70;0.47;;;25.50;64.60;;;;;;4993414;28;20073;-89
2022/06/13 15:57:18;;;;;;;2.03;0.47;;;25.70;66.40;;;;;;4993345;28;20038;-88
2022/06/13 16:00:23;;;;;;;0.38;0.20;;;26.10;64.20;;;;;;5006375;28;20022;-88
2022/06/13 16:03:15;;;;;;;1.20;0.38;;;25.90;63.60;;;;;;4991346;28;20084;-87